createdAt,value
2022-11-01T00:02:19.100Z,13.88
2022-11-01T00:04:46.641Z,13.74
2022-11-01T00:07:14.127Z,13.60
2022-11-01T00:09:41.542Z,13.43
2022-11-01T00:12:08.963Z,13.44
2022-11-01T00:14:36.746Z,13.50
2022-11-01T00:17:04.460Z,13.54
2022-11-01T00:19:31.978Z,13.56
2022-11-01T00:21:59.424Z,13.65
2022-11-01T00:24:27.084Z,13.58
2022-11-01T00:26:54.585Z,13.82
2022-11-01T00:29:22.033Z,13.84
2022-11-01T00:31:49.750Z,13.86
2022-11-01T00:34:18.033Z,13.74
2022-11-01T00:36:45.479Z,13.73
2022-11-01T00:39:16.753Z,13.68
2022-11-01T00:41:44.186Z,13.62
2022-11-01T00:44:11.693Z,13.52
2022-11-01T00:46:40.432Z,13.60
2022-11-01T00:49:07.851Z,13.70
2022-11-01T00:51:35.283Z,13.75
2022-11-01T00:54:02.747Z,13.71
2022-11-01T00:56:30.232Z,13.75
2022-11-01T00:58:57.665Z,13.60
2022-11-01T01:01:25.319Z,13.53
2022-11-01T01:03:52.837Z,13.51
2022-11-01T01:06:20.511Z,13.41
2022-11-01T01:08:47.900Z,13.42
2022-11-01T01:11:15.889Z,13.47
2022-11-01T01:13:43.471Z,13.47
2022-11-01T01:16:13.050Z,13.45
2022-11-01T01:18:40.770Z,13.64
2022-11-01T01:21:08.594Z,13.52
2022-11-01T01:23:37.187Z,13.51
2022-11-01T01:26:09.704Z,13.52
2022-11-01T01:28:41.878Z,13.58
2022-11-01T01:31:14.177Z,13.52
2022-11-01T01:33:41.745Z,13.58
2022-11-01T01:36:09.436Z,13.64
2022-11-01T01:38:37.133Z,13.69
2022-11-01T01:41:24.129Z,13.47
2022-11-01T01:43:51.600Z,13.62
2022-11-01T01:46:19.074Z,13.52
2022-11-01T01:48:52.510Z,13.34
2022-11-01T01:51:26.048Z,13.37
2022-11-01T01:53:55.975Z,13.34
2022-11-01T01:56:43.724Z,13.33
2022-11-01T01:59:11.767Z,13.41
2022-11-01T02:01:41.974Z,13.50
2022-11-01T02:04:22.416Z,13.45
2022-11-01T02:06:50.293Z,13.17
2022-11-01T02:09:19.058Z,13.01
2022-11-01T02:11:47.318Z,13.17
2022-11-01T02:14:15.434Z,13.15
2022-11-01T02:17:06.883Z,13.14
2022-11-01T02:20:20.958Z,13.24
2022-11-01T02:23:28.443Z,13.22
2022-11-01T02:26:22.924Z,13.02
2022-11-01T02:29:39.650Z,12.99
2022-11-01T02:32:25.104Z,13.02
2022-11-01T02:35:36.666Z,13.06
2022-11-01T02:38:19.346Z,13.02
2022-11-01T02:41:17.116Z,13.04
2022-11-01T02:44:00.531Z,13.01
2022-11-01T02:46:55.817Z,13.02
2022-11-01T02:49:26.795Z,13.11
2022-11-01T02:51:57.016Z,13.11
2022-11-01T02:54:33.362Z,13.17
2022-11-01T02:57:20.875Z,12.98
2022-11-01T02:59:49.627Z,13.01
2022-11-01T03:02:41.082Z,12.97
2022-11-01T03:05:20.248Z,12.88
2022-11-01T03:08:00.224Z,12.88
2022-11-01T03:10:53.440Z,12.85
2022-11-01T03:13:56.740Z,12.84
2022-11-01T03:16:36.653Z,12.67
2022-11-01T03:19:26.415Z,12.55
2022-11-01T03:22:23.909Z,12.49
2022-11-01T03:24:56.813Z,12.41
2022-11-01T03:27:32.678Z,12.59
2022-11-01T03:30:07.205Z,13.76
2022-11-01T03:32:45.957Z,13.09
2022-11-01T03:35:25.785Z,12.49
2022-11-01T03:37:59.252Z,12.02
2022-11-01T03:40:29.596Z,11.64
2022-11-01T03:43:05.375Z,11.46
2022-11-01T03:45:37.720Z,11.45
2022-11-01T03:48:06.553Z,11.38
2022-11-01T03:50:34.978Z,11.27
2022-11-01T03:53:02.822Z,11.19
2022-11-01T03:55:30.271Z,11.32
2022-11-01T03:58:00.436Z,11.46
2022-11-01T04:00:36.651Z,11.39
2022-11-01T04:03:04.507Z,11.45
2022-11-01T04:05:34.180Z,11.60
2022-11-01T04:08:06.066Z,11.51
2022-11-01T04:10:34.083Z,11.47
2022-11-01T04:13:02.215Z,11.44
2022-11-01T04:15:48.996Z,11.42
2022-11-01T04:18:42.881Z,11.66
2022-11-01T04:21:14.332Z,11.72
2022-11-01T04:23:43.096Z,11.70
2022-11-01T04:26:19.340Z,11.58
2022-11-01T04:28:57.234Z,11.62
2022-11-01T04:31:36.966Z,11.51
2022-11-01T04:34:05.954Z,11.60
2022-11-01T04:36:33.400Z,11.64
2022-11-01T04:39:00.893Z,11.63
2022-11-01T04:41:30.177Z,11.62
2022-11-01T04:43:59.964Z,11.65
2022-11-01T04:46:32.063Z,11.65
2022-11-01T04:49:00.084Z,11.53
2022-11-01T04:51:27.698Z,11.64
2022-11-01T04:53:55.256Z,11.50
2022-11-01T04:56:22.654Z,11.38
2022-11-01T04:58:50.066Z,11.22
2022-11-01T05:01:17.913Z,11.15
2022-11-01T05:03:45.423Z,11.41
2022-11-01T05:06:12.890Z,11.34
2022-11-01T05:08:40.339Z,11.35
2022-11-01T05:11:07.816Z,11.35
2022-11-01T05:13:36.056Z,11.58
2022-11-01T05:16:21.000Z,11.45
2022-11-01T05:18:51.542Z,11.58
2022-11-01T05:21:19.053Z,11.77
2022-11-01T05:23:49.157Z,11.87
2022-11-01T05:26:17.332Z,11.90
2022-11-01T05:28:44.785Z,12.07
2022-11-01T05:31:12.399Z,11.92
2022-11-01T05:33:39.826Z,11.88
2022-11-01T05:36:07.703Z,11.87
2022-11-01T05:38:35.171Z,11.97
2022-11-01T05:41:04.433Z,12.25
2022-11-01T05:43:31.946Z,12.51
2022-11-01T05:46:02.831Z,12.58
2022-11-01T05:48:30.419Z,12.27
2022-11-01T05:50:57.819Z,12.37
2022-11-01T05:53:25.418Z,12.79
2022-11-01T05:55:55.760Z,12.78
2022-11-01T05:58:26.511Z,12.77
2022-11-01T06:01:06.537Z,12.83
2022-11-01T06:03:36.256Z,12.88
2022-11-01T06:06:04.281Z,12.90
2022-11-01T06:08:32.662Z,13.10
2022-11-01T06:11:04.852Z,12.99
2022-11-01T06:13:33.574Z,13.13
2022-11-01T06:16:05.129Z,13.28
2022-11-01T06:18:35.668Z,13.56
2022-11-01T06:21:03.113Z,13.67
2022-11-01T06:23:30.626Z,13.89
2022-11-01T06:26:03.801Z,13.99
2022-11-01T06:28:33.383Z,14.04
2022-11-01T06:31:03.372Z,14.23
2022-11-01T06:33:32.418Z,14.26
2022-11-01T06:36:01.567Z,14.34
2022-11-01T06:38:29.129Z,14.34
2022-11-01T06:40:58.300Z,14.36
2022-11-01T06:43:25.825Z,14.33
2022-11-01T06:45:53.420Z,14.63
2022-11-01T06:48:20.901Z,14.67
2022-11-01T06:50:48.355Z,15.02
2022-11-01T06:53:15.812Z,15.22
2022-11-01T06:55:43.291Z,15.35
2022-11-01T06:58:10.760Z,15.54
2022-11-01T07:00:38.230Z,15.67
2022-11-01T07:03:13.359Z,15.75
2022-11-01T07:05:41.743Z,15.90
2022-11-01T07:08:13.009Z,16.00
2022-11-01T07:10:43.166Z,16.14
2022-11-01T07:13:13.646Z,16.53
2022-11-01T07:15:42.333Z,16.33
2022-11-01T07:18:10.455Z,16.64
2022-11-01T07:20:42.127Z,16.65
2022-11-01T07:23:14.351Z,16.89
2022-11-01T07:25:42.546Z,17.00
2022-11-01T07:28:10.799Z,17.21
2022-11-01T07:30:39.300Z,17.41
2022-11-01T07:33:07.169Z,17.64
2022-11-01T07:35:35.674Z,17.90
2022-11-01T07:38:06.424Z,18.10
2022-11-01T07:40:40.301Z,18.04
2022-11-01T07:43:09.863Z,18.37
2022-11-01T07:45:37.469Z,18.64
2022-11-01T07:48:17.043Z,18.70
2022-11-01T07:50:48.088Z,18.85
2022-11-01T07:53:19.409Z,18.90
2022-11-01T07:55:47.473Z,19.39
2022-11-01T07:58:20.765Z,19.62
2022-11-01T08:00:48.298Z,19.71
2022-11-01T08:03:19.520Z,19.73
2022-11-01T08:05:48.696Z,20.08
2022-11-01T08:08:16.836Z,20.27
2022-11-01T08:10:46.304Z,20.24
2022-11-01T08:13:19.335Z,20.56
2022-11-01T08:15:49.193Z,20.80
2022-11-01T08:18:20.262Z,20.78
2022-11-01T08:20:47.926Z,20.73
2022-11-01T08:23:15.689Z,20.98
2022-11-01T08:25:43.462Z,21.36
2022-11-01T08:28:17.692Z,21.43
2022-11-01T08:30:49.072Z,21.32
2022-11-01T08:33:16.630Z,21.14
2022-11-01T08:35:50.133Z,21.34
2022-11-01T08:38:20.149Z,21.47
2022-11-01T08:40:48.299Z,21.49
2022-11-01T08:43:16.022Z,21.54
2022-11-01T08:45:43.473Z,21.81
2022-11-01T08:48:11.402Z,21.96
2022-11-01T08:50:39.320Z,21.84
2022-11-01T08:53:12.946Z,22.15
2022-11-01T08:55:41.676Z,22.19
2022-11-01T08:58:09.920Z,22.45
2022-11-01T09:00:38.003Z,22.59
2022-11-01T09:03:05.675Z,22.69
2022-11-01T09:05:33.290Z,22.91
2022-11-01T09:08:01.996Z,23.18
2022-11-01T09:10:32.985Z,23.76
2022-11-01T09:13:01.786Z,23.88
2022-11-01T09:15:31.163Z,23.83
2022-11-01T09:17:58.732Z,23.93
2022-11-01T09:20:28.251Z,24.07
2022-11-01T09:22:55.725Z,24.64
2022-11-01T09:25:23.196Z,24.39
2022-11-01T09:27:50.663Z,24.35
2022-11-01T09:30:18.430Z,24.26
2022-11-01T09:32:46.125Z,24.29
2022-11-01T09:35:13.545Z,24.53
2022-11-01T09:37:41.047Z,24.58
2022-11-01T09:40:11.327Z,25.16
2022-11-01T09:43:03.393Z,24.97
2022-11-01T09:45:34.976Z,24.93
2022-11-01T09:48:13.670Z,25.23
2022-11-01T09:50:43.851Z,25.70
2022-11-01T09:53:30.514Z,25.68
2022-11-01T09:56:10.391Z,25.76
2022-11-01T09:59:04.892Z,25.88
2022-11-01T10:01:41.195Z,26.01
2022-11-01T10:04:45.994Z,25.80
2022-11-01T10:07:52.566Z,26.21
2022-11-01T10:10:44.248Z,26.06
2022-11-01T10:13:49.921Z,26.09
2022-11-01T10:16:42.093Z,26.64
2022-11-01T10:19:19.005Z,27.09
2022-11-01T10:21:50.693Z,27.41
2022-11-01T10:24:41.520Z,27.46
2022-11-01T10:27:40.978Z,27.41
2022-11-01T10:30:17.336Z,27.25
2022-11-01T10:32:55.743Z,27.32
2022-11-01T10:35:41.308Z,27.65
2022-11-01T10:38:59.169Z,27.55
2022-11-01T10:41:52.373Z,27.33
2022-11-01T10:44:33.878Z,27.84
2022-11-01T10:47:07.181Z,28.02
2022-11-01T10:52:45.447Z,28.36
2022-11-01T10:55:25.225Z,28.77
2022-11-01T10:58:05.481Z,29.40
2022-11-01T11:00:38.280Z,29.15
2022-11-01T11:03:27.958Z,29.04
2022-11-01T11:05:59.455Z,29.23
2022-11-01T11:08:27.471Z,29.64
2022-11-01T11:11:01.694Z,29.68
2022-11-01T11:13:50.513Z,29.72
2022-11-01T11:16:47.230Z,29.37
2022-11-01T11:19:26.332Z,29.10
2022-11-01T11:21:56.060Z,29.14
2022-11-01T11:24:39.362Z,29.85
2022-11-01T11:27:33.587Z,30.79
2022-11-01T11:30:05.683Z,30.98
2022-11-01T11:32:35.967Z,31.06
2022-11-01T11:35:14.985Z,31.45
2022-11-01T11:37:59.731Z,31.58
2022-11-01T11:40:42.376Z,31.46
2022-11-01T11:43:30.423Z,31.38
2022-11-01T11:46:36.804Z,31.89
2022-11-01T11:49:07.289Z,32.00
2022-11-01T11:51:39.439Z,31.82
2022-11-01T11:54:24.778Z,31.98
2022-11-01T11:57:10.120Z,31.45
2022-11-01T11:59:38.585Z,31.64
2022-11-01T12:02:40.999Z,32.09
2022-11-01T12:05:17.212Z,32.21
2022-11-01T12:07:56.923Z,32.31
2022-11-01T12:10:46.771Z,32.29
2022-11-01T12:13:37.622Z,32.41
2022-11-01T12:16:25.079Z,32.72
2022-11-01T12:19:01.703Z,32.95
2022-11-01T12:21:35.952Z,33.13
2022-11-01T12:24:34.309Z,33.60
2022-11-01T12:27:10.303Z,33.78
2022-11-01T12:29:57.894Z,33.47
2022-11-01T12:32:54.128Z,33.67
2022-11-01T12:35:33.160Z,33.72
2022-11-01T12:38:09.907Z,33.85
2022-11-01T12:40:39.254Z,33.73
2022-11-01T12:43:49.711Z,34.24
2022-11-01T12:46:34.677Z,34.51
2022-11-01T12:50:05.236Z,35.03
2022-11-01T12:52:44.856Z,35.06
2022-11-01T12:55:35.182Z,35.19
2022-11-01T12:58:04.158Z,35.49
2022-11-01T13:01:13.513Z,35.97
2022-11-01T13:03:48.055Z,36.64
2022-11-01T13:06:59.954Z,36.93
2022-11-01T13:10:07.197Z,37.09
2022-11-01T13:13:27.700Z,36.97
2022-11-01T13:16:27.966Z,37.13
2022-11-01T13:19:23.380Z,37.10
2022-11-01T13:21:56.486Z,36.98
2022-11-01T13:24:32.069Z,37.10
2022-11-01T13:27:19.819Z,37.32
2022-11-01T13:30:15.841Z,37.03
2022-11-01T13:33:02.137Z,36.72
2022-11-01T13:35:53.272Z,37.24
2022-11-01T13:38:40.585Z,37.82
2022-11-01T13:41:35.340Z,37.96
2022-11-01T13:44:20.982Z,37.67
2022-11-01T13:47:23.479Z,37.75
2022-11-01T13:50:25.909Z,37.27
2022-11-01T13:53:04.841Z,37.22
2022-11-01T13:55:43.886Z,37.29
2022-11-01T13:58:22.075Z,37.38
2022-11-01T14:00:55.684Z,37.14
2022-11-01T14:03:25.889Z,36.96
2022-11-01T14:09:25.998Z,37.03
2022-11-01T14:12:31.900Z,37.17
2022-11-01T14:15:27.840Z,36.86
2022-11-01T14:18:07.462Z,36.46
2022-11-01T14:20:44.562Z,35.96
2022-11-01T14:23:30.213Z,35.65
2022-11-01T14:26:20.010Z,35.37
2022-11-01T14:28:51.477Z,35.16
2022-11-01T14:31:24.635Z,35.10
2022-11-01T14:33:59.881Z,34.62
2022-11-01T14:36:33.063Z,34.31
2022-11-01T14:39:40.106Z,34.02
2022-11-01T14:42:13.326Z,33.65
2022-11-01T14:44:49.738Z,33.32
2022-11-01T14:47:39.719Z,32.82
2022-11-01T14:51:03.742Z,32.19
2022-11-01T14:53:38.450Z,31.59
2022-11-01T14:56:27.388Z,30.99
2022-11-01T14:59:22.186Z,30.28
2022-11-01T15:01:59.488Z,29.65
2022-11-01T15:04:33.591Z,28.86
2022-11-01T15:07:02.266Z,28.17
2022-11-01T15:09:31.934Z,27.67
2022-11-01T15:12:11.278Z,27.22
2022-11-01T15:14:47.319Z,26.77
2022-11-01T15:17:30.668Z,26.44
2022-11-01T15:19:59.984Z,26.00
2022-11-01T15:22:31.414Z,25.67
2022-11-01T15:25:03.572Z,25.45
2022-11-01T15:27:44.298Z,25.10
2022-11-01T15:30:20.495Z,24.83
2022-11-01T15:32:54.033Z,24.49
2022-11-01T15:35:26.576Z,24.31
2022-11-01T15:37:55.442Z,24.21
2022-11-01T15:40:37.376Z,23.97
2022-11-01T15:43:05.370Z,23.78
2022-11-01T15:45:36.974Z,23.53
2022-11-01T15:48:14.823Z,23.34
2022-11-01T15:50:50.149Z,23.31
2022-11-01T15:53:24.797Z,23.22
2022-11-01T15:56:24.593Z,23.16
2022-11-01T16:01:29.052Z,22.93
2022-11-01T16:04:10.592Z,22.85
2022-11-01T16:06:47.304Z,22.72
2022-11-01T16:09:45.908Z,22.60
2022-11-01T16:12:25.843Z,22.43
2022-11-01T16:15:06.370Z,22.34
2022-11-01T16:18:01.836Z,22.22
2022-11-01T16:20:41.355Z,22.12
2022-11-01T16:23:15.558Z,22.16
2022-11-01T16:25:43.399Z,22.16
2022-11-01T16:28:13.767Z,22.16
2022-11-01T16:30:51.178Z,22.06
2022-11-01T16:33:35.396Z,22.01
2022-11-01T16:36:34.352Z,21.97
2022-11-01T16:39:02.022Z,21.82
2022-11-01T16:41:38.085Z,21.74
2022-11-01T16:44:16.327Z,21.76
2022-11-01T16:46:44.375Z,21.56
2022-11-01T16:49:14.697Z,21.50
2022-11-01T16:51:42.491Z,21.35
2022-11-01T16:54:10.658Z,21.28
2022-11-01T16:56:51.715Z,21.29
2022-11-01T16:59:34.347Z,21.28
2022-11-01T17:02:22.116Z,21.26
2022-11-01T17:05:19.520Z,21.19
2022-11-01T17:07:48.206Z,21.10
2022-11-01T17:10:22.443Z,20.96
2022-11-01T17:12:54.173Z,20.87
2022-11-01T17:15:21.734Z,20.80
2022-11-01T17:17:49.852Z,20.71
2022-11-01T17:23:27.244Z,20.51
2022-11-01T17:25:57.645Z,20.37
2022-11-01T17:28:25.224Z,20.28
2022-11-01T17:30:53.336Z,20.26
2022-11-01T17:33:22.058Z,20.16
2022-11-01T17:35:49.779Z,20.09
2022-11-01T17:38:30.278Z,19.97
2022-11-01T17:41:00.955Z,20.00
2022-11-01T17:43:29.856Z,19.96
2022-11-01T17:46:00.147Z,19.89
2022-11-01T17:48:27.635Z,19.82
2022-11-01T17:51:01.709Z,19.75
2022-11-01T17:53:31.614Z,19.74
2022-11-01T17:56:00.378Z,19.72
2022-11-01T17:58:30.120Z,19.69
2022-11-01T18:01:00.666Z,19.64
2022-11-01T18:03:28.710Z,19.61
2022-11-01T18:06:02.262Z,19.55
2022-11-01T18:08:35.229Z,19.52
2022-11-01T18:11:22.890Z,19.50
2022-11-01T18:14:26.694Z,19.43
2022-11-01T18:17:11.358Z,19.44
2022-11-01T18:20:11.288Z,19.39
2022-11-01T18:22:57.982Z,19.31
2022-11-01T18:25:49.797Z,19.13
2022-11-01T18:28:24.837Z,18.98
2022-11-01T18:31:35.314Z,18.81
2022-11-01T18:35:04.252Z,18.54
2022-11-01T18:38:26.058Z,18.32
2022-11-01T18:41:03.117Z,18.27
2022-11-01T18:43:56.906Z,18.10
2022-11-01T18:46:33.277Z,18.11
2022-11-01T18:49:06.016Z,18.01
2022-11-01T18:51:36.870Z,17.96
2022-11-01T18:54:33.112Z,17.71
2022-11-01T18:57:12.499Z,17.61
2022-11-01T18:59:41.703Z,17.55
2022-11-01T19:02:11.967Z,17.68
2022-11-01T19:04:49.157Z,17.48
2022-11-01T19:07:35.151Z,17.36
2022-11-01T19:10:22.257Z,16.80
2022-11-01T19:12:56.911Z,16.93
2022-11-01T19:15:26.008Z,16.95
2022-11-01T19:17:58.892Z,16.73
2022-11-01T19:20:39.141Z,16.45
2022-11-01T19:23:20.899Z,15.99
2022-11-01T19:25:51.859Z,15.81
2022-11-01T19:28:40.660Z,15.91
2022-11-01T19:31:32.787Z,15.58
2022-11-01T19:34:08.054Z,15.87
2022-11-01T19:36:41.286Z,15.76
2022-11-01T19:39:24.890Z,15.75
2022-11-01T19:41:54.595Z,15.69
2022-11-01T19:44:26.749Z,15.49
2022-11-01T19:47:25.327Z,15.32
2022-11-01T19:49:53.548Z,15.32
2022-11-01T19:52:30.643Z,15.37
2022-11-01T19:54:59.471Z,15.29
2022-11-01T19:57:44.855Z,15.33
2022-11-01T20:00:16.388Z,15.46
2022-11-01T20:02:48.997Z,15.32
2022-11-01T20:05:56.784Z,15.32
2022-11-01T20:08:36.319Z,15.32
2022-11-01T20:11:03.882Z,15.28
2022-11-01T20:13:32.481Z,15.22
2022-11-01T20:16:00.507Z,15.18
2022-11-01T20:18:28.021Z,15.14
2022-11-01T20:20:56.530Z,15.17
2022-11-01T20:23:26.694Z,15.29
2022-11-01T20:25:55.872Z,15.23
2022-11-01T20:28:23.761Z,15.36
2022-11-01T20:30:51.507Z,15.35
2022-11-01T20:33:19.838Z,15.38
2022-11-01T20:35:49.464Z,15.24
2022-11-01T20:38:17.166Z,15.18
2022-11-01T20:40:47.099Z,15.09
2022-11-01T20:43:14.831Z,15.32
2022-11-01T20:45:43.234Z,15.36
2022-11-01T20:48:10.751Z,15.42
2022-11-01T20:50:41.596Z,15.35
2022-11-01T20:53:09.926Z,15.47
2022-11-01T20:55:38.716Z,15.33
2022-11-01T20:58:06.590Z,15.41
2022-11-01T21:00:35.985Z,15.40
2022-11-01T21:03:21.937Z,15.43
2022-11-01T21:05:51.097Z,15.35
2022-11-01T21:08:33.583Z,15.22
2022-11-01T21:11:06.415Z,15.25
2022-11-01T21:13:46.129Z,15.14
2022-11-01T21:16:30.728Z,15.17
2022-11-01T21:19:04.072Z,15.19
2022-11-01T21:21:45.323Z,15.25
2022-11-01T21:24:34.764Z,15.30
2022-11-01T21:27:26.682Z,15.24
2022-11-01T21:30:14.350Z,15.21
2022-11-01T21:32:45.021Z,15.09
2022-11-01T21:35:38.501Z,14.85
2022-11-01T21:38:36.217Z,14.50
2022-11-01T21:41:31.687Z,14.26
2022-11-01T21:44:20.949Z,14.17
2022-11-01T21:47:13.884Z,14.15
2022-11-01T21:49:41.651Z,14.08
2022-11-01T21:54:48.133Z,14.21
2022-11-01T21:57:17.088Z,14.16
2022-11-01T21:59:44.879Z,13.89
2022-11-01T22:02:15.167Z,14.13
2022-11-01T22:04:44.024Z,13.93
2022-11-01T22:07:13.123Z,13.85
2022-11-01T22:09:40.960Z,13.84
2022-11-01T22:12:08.621Z,14.04
2022-11-01T22:14:37.433Z,13.88
2022-11-01T22:17:04.997Z,14.02
2022-11-01T22:19:32.421Z,14.07
2022-11-01T22:21:59.834Z,13.96
2022-11-01T22:24:27.370Z,13.84
2022-11-01T22:26:54.948Z,14.10
2022-11-01T22:29:22.356Z,13.79
2022-11-01T22:31:49.809Z,13.93
2022-11-01T22:34:17.464Z,13.77
2022-11-01T22:36:44.917Z,13.87
2022-11-01T22:39:22.971Z,13.60
2022-11-01T22:41:50.630Z,13.62
2022-11-01T22:44:27.540Z,13.69
2022-11-01T22:47:00.525Z,13.43
2022-11-01T22:49:50.579Z,13.22
2022-11-01T22:52:39.321Z,13.28
2022-11-01T22:55:19.148Z,13.41
2022-11-01T22:58:24.242Z,13.50
2022-11-01T23:00:51.831Z,13.51
2022-11-01T23:03:28.870Z,13.44
2022-11-01T23:06:00.353Z,13.53
2022-11-01T23:08:33.175Z,13.47
2022-11-01T23:11:01.800Z,13.48
2022-11-01T23:13:55.839Z,13.55
2022-11-01T23:16:36.626Z,13.65
2022-11-01T23:19:11.783Z,13.52
2022-11-01T23:21:39.627Z,13.24
2022-11-01T23:24:08.680Z,13.83
2022-11-01T23:26:36.128Z,13.72
2022-11-01T23:29:03.679Z,13.13
2022-11-01T23:31:31.382Z,12.88
2022-11-01T23:33:58.814Z,12.77
2022-11-01T23:36:29.355Z,12.65
2022-11-01T23:41:38.255Z,12.47
2022-11-01T23:44:20.776Z,12.43
2022-11-01T23:46:52.962Z,12.24
2022-11-01T23:49:25.421Z,12.30
2022-11-01T23:51:53.235Z,12.14
2022-11-01T23:54:36.478Z,12.18
2022-11-01T23:57:03.985Z,12.37
2022-11-01T23:59:31.765Z,12.21
